ENSB/LYR METAR and TAF weather

Enter ICAO airport designator
Station Type Date Time Source
ENSB METAR 2018/12/12 23:50 UTC NOAA

ENSB 122350Z 13013KT 2000 SN VV008 00/M00 Q0988 RMK WIND 1400FT 21016KT


Station Type Date Time Source
ENSB Decoded METAR 2018/12/12 23:50 UTC NOAA

Svalbard Lufthavn, Norway (ENSB) 78-15N 015-28E 29M
Dec 12, 2018 - 06:50 PM EST / 2018.12.12 2350 UTC
Wind: from the SE (130 degrees) at 15 MPH (13 KT):0
Visibility: 1 mile(s):0
Sky conditions: obscured
Weather: snow
Temperature: 32 F (0 C)
Windchill: 21 F (-6 C):1
Dew Point: 32 F (0 C)
Relative Humidity: 100%
Pressure (altimeter): 29.18 in. Hg (0988 hPa)
ob: ENSB 122350Z 13013KT 2000 SN VV008 00/M00 Q0988 RMK WIND 1400FT 21016KT
cycle: 0

Station Type Date Time Source
ENSB TAF 2018/12/12 19:57 UTC NOAA

TAF
AMD TAF
AMD ENSB 121950Z 1219/1318 20008KT 9999 SCT015 BKN030
TEMPO 1219/1224 14010KT PROB30
TEMPO 1219/1224 -FZRA
TEMPO 1221/1303 1500 SNRA BKN008
BECMG 1223/1302 25025KT
TEMPO 1300/1312 26025G35KT 2000 SHSN BKN010


Example: see airport list